Time;durP1;ratioP1;P1;durP2;ratioP2;P2;SDS_P1;SDS_P2;PMS_P1;PMS_P2;Temp;Humidity;BMP_temperature;BMP_pressure;BME280_temperature;BME280_humidity;BME280_pressure;Samples;Min_cycle;Max_cycle;Signal;HPM_P1;HPM_P2
2023/08/04 01:05:00;;;;;;;4.05;0.80;;;;;;;;;;4904721;29;20139;-81
2023/08/04 01:20:04;;;;;;;5.07;0.90;;;;;;;;;;3817095;26;20061;-81
2023/08/04 01:29:52;;;;;;;6.32;0.85;;;;;;;;;;4995742;28;20038;-81
2023/08/04 01:32:51;;;;;;;5.90;0.98;;;;;;;;;;4991686;28;20046;-82
2023/08/04 01:38:44;;;;;;;6.80;0.95;;;;;;;;;;5005129;28;20037;-81
2023/08/04 01:44:26;;;;;;;6.57;1.63;;;;;;;;;;4755002;26;20057;-82
2023/08/04 01:47:11;;;;;;;;;;;;;;;;;;;;;
2023/08/04 02:08:32;;;;;;;;;;;;;;;;;;;;;
2023/08/04 02:26:05;;;;;;;4.22;0.70;;;;;;;;;;4940820;28;20039;-82
2023/08/04 02:52:00;;;;;;;6.22;1.05;;;;;;;;;;4963905;28;20045;-82
2023/08/04 02:54:48;;;;;;;4.65;0.63;;;;;;;;;;4968634;28;20053;-81
2023/08/04 02:57:30;;;;;;;3.50;0.70;;;;;;;;;;4947980;28;20090;-82
2023/08/04 03:03:20;;;;;;;2.72;0.70;;;;;;;;;;4928577;29;20434;-81
2023/08/04 03:09:44;;;;;;;5.07;0.90;;;;;;;;;;4850993;29;20900;-82
2023/08/04 03:15:40;;;;;;;4.45;0.73;;;;;;;;;;4896949;29;20415;-82
2023/08/04 03:18:46;;;;;;;;;;;;;;;;;;;;;
2023/08/04 03:24:54;;;;;;;;;;;;;;;;;;;;;
2023/08/04 03:31:03;;;;;;;;;;;;;;;;;;;;;
2023/08/04 03:58:42;;;;;;;;;;;;;;;;;;;;;
2023/08/04 04:10:58;;;;;;;;;;;;;;;;;;4854285;29;20049;-82
2023/08/04 04:38:07;;;;;;;3.90;0.60;;;;;;;;;;4923892;29;20039;-82
2023/08/04 04:55:34;;;;;;;5.57;0.65;;;;;;;;;;4921414;29;20473;-82
2023/08/04 05:12:06;;;;;;;3.70;0.77;;;;;;;;;;4918723;26;20042;-82
2023/08/04 05:14:40;;;;;;;5.45;1.10;;;;;;;;;;4972616;28;20090;-82
2023/08/04 05:17:07;;;;;;;6.32;1.25;;;;;;;;;;4975868;28;20583;-82
2023/08/04 05:19:33;;;;;;;5.75;1.10;;;;;;;;;;4964247;28;20045;-82
2023/08/04 05:22:06;;;;;;;5.85;1.25;;;;;;;;;;4991536;28;20061;-82
2023/08/04 05:24:32;;;;;;;4.43;0.88;;;;;;;;;;4988949;28;20034;-81
2023/08/04 05:26:58;;;;;;;7.75;0.70;;;;;;;;;;4974312;28;20054;-82
2023/08/04 05:29:36;;;;;;;5.07;0.73;;;;;;;;;;4985304;28;20066;-81
2023/08/04 05:32:03;;;;;;;3.00;0.60;;;;;;;;;;4968877;28;20050;-82
2023/08/04 05:34:39;;;;;;;7.32;1.30;;;;;;;;;;4968595;28;20046;-83
2023/08/04 05:37:06;;;;;;;2.85;0.60;;;;;;;;;;4966937;28;20046;-82
2023/08/04 05:39:35;;;;;;;5.72;0.60;;;;;;;;;;4968548;28;20042;-82
2023/08/04 05:42:01;;;;;;;4.32;0.63;;;;;;;;;;4962473;28;20053;-82
2023/08/04 05:44:28;;;;;;;4.18;0.60;;;;;;;;;;4969560;28;20041;-82
2023/08/04 05:46:57;;;;;;;5.40;1.20;;;;;;;;;;4960556;28;20478;-82
2023/08/04 05:49:26;;;;;;;7.10;0.80;;;;;;;;;;4988000;28;20042;-82
2023/08/04 05:51:52;;;;;;;6.03;1.00;;;;;;;;;;4965803;28;20047;-82
2023/08/04 05:54:24;;;;;;;3.10;0.90;;;;;;;;;;4964395;28;20047;-82
2023/08/04 05:56:53;;;;;;;4.18;0.90;;;;;;;;;;4988142;28;20073;-82
2023/08/04 05:59:21;;;;;;;4.97;1.08;;;;;;;;;;4965476;28;20129;-82
2023/08/04 06:01:49;;;;;;;4.95;0.70;;;;;;;;;;4983352;28;20046;-82
2023/08/04 06:04:23;;;;;;;6.72;1.08;;;;;;;;;;4969949;28;20078;-82
2023/08/04 06:06:49;;;;;;;3.30;0.80;;;;;;;;;;4983704;28;20043;-82
2023/08/04 06:09:21;;;;;;;3.45;0.52;;;;;;;;;;4970385;28;20506;-82
2023/08/04 06:11:47;;;;;;;2.58;0.70;;;;;;;;;;4957964;28;20071;-82
2023/08/04 06:14:13;;;;;;;5.50;1.10;;;;;;;;;;4987305;28;20046;-82
2023/08/04 06:16:47;;;;;;;4.28;0.80;;;;;;;;;;4958468;28;20053;-82
2023/08/04 06:19:13;;;;;;;6.25;0.70;;;;;;;;;;4984062;28;20482;-82
2023/08/04 06:21:42;;;;;;;1.55;0.40;;;;;;;;;;4965081;28;20417;-83
2023/08/04 06:24:08;;;;;;;3.95;0.93;;;;;;;;;;4990075;28;20113;-82
2023/08/04 06:26:40;;;;;;;2.60;0.65;;;;;;;;;;4967008;28;20068;-82
2023/08/04 06:29:06;;;;;;;3.22;0.82;;;;;;;;;;4958554;28;20049;-82
2023/08/04 06:31:35;;;;;;;1.90;0.40;;;;;;;;;;4974944;28;20089;-82
2023/08/04 06:34:26;;;;;;;4.85;0.50;;;;;;;;;;4969197;28;20041;-82
2023/08/04 06:36:59;;;;;;;1.48;0.40;;;;;;;;;;4962231;28;20050;-82
2023/08/04 06:39:28;;;;;;;2.78;0.30;;;;;;;;;;4985987;28;20038;-82
2023/08/04 06:41:59;;;;;;;1.65;0.35;;;;;;;;;;4972836;28;20847;-82
2023/08/04 06:44:27;;;;;;;3.22;0.50;;;;;;;;;;4970389;28;20117;-82
2023/08/04 06:46:53;;;;;;;1.65;0.20;;;;;;;;;;4969203;28;20070;-82
2023/08/04 06:49:22;;;;;;;2.72;0.45;;;;;;;;;;4976174;28;20042;-82
2023/08/04 06:51:49;;;;;;;1.83;0.38;;;;;;;;;;4954965;28;20925;-82
2023/08/04 06:54:16;;;;;;;1.92;0.30;;;;;;;;;;4987948;28;20038;-82
2023/08/04 06:56:42;;;;;;;1.73;0.40;;;;;;;;;;4988620;28;20164;-82
2023/08/04 06:59:08;;;;;;;2.92;0.40;;;;;;;;;;4967617;28;20061;-82
2023/08/04 07:01:39;;;;;;;3.85;0.38;;;;;;;;;;4955929;28;20046;-82
2023/08/04 07:04:14;;;;;;;1.40;0.40;;;;;;;;;;4966340;28;20450;-83
2023/08/04 07:06:40;;;;;;;1.05;0.30;;;;;;;;;;4958286;28;20070;-83
2023/08/04 07:09:09;;;;;;;3.28;0.55;;;;;;;;;;4976539;28;20045;-83
2023/08/04 07:11:56;;;;;;;3.25;0.40;;;;;;;;;;4970105;28;20406;-83
2023/08/04 07:14:27;;;;;;;3.88;0.50;;;;;;;;;;4971904;28;20049;-83
2023/08/04 07:16:56;;;;;;;6.13;0.60;;;;;;;;;;4989531;28;20041;-82
2023/08/04 07:19:54;;;;;;;19.85;1.77;;;;;;;;;;4968779;28;20061;-82
2023/08/04 07:22:42;;;;;;;;;;;;;;;;;;;;;
2023/08/04 07:25:13;;;;;;;2.47;0.50;;;;;;;;;;4990032;28;20038;-83
2023/08/04 07:27:46;;;;;;;3.15;0.55;;;;;;;;;;4989899;28;20039;-83
2023/08/04 07:30:15;;;;;;;2.85;0.40;;;;;;;;;;4960513;28;20054;-83
2023/08/04 07:32:53;;;;;;;4.60;0.52;;;;;;;;;;4971610;28;20133;-82
2023/08/04 07:35:31;;;;;;;;;;;;;;;;;;;;;
2023/08/04 07:38:12;;;;;;;1.80;0.40;;;;;;;;;;4990244;28;20572;-82
2023/08/04 07:40:51;;;;;;;2.75;0.30;;;;;;;;;;4968311;28;20061;-83
2023/08/04 07:43:30;;;;;;;1.88;0.60;;;;;;;;;;4975051;28;20075;-83
2023/08/04 07:46:13;;;;;;;4.25;0.50;;;;;;;;;;4974757;28;20042;-82
2023/08/04 07:48:42;;;;;;;1.85;0.40;;;;;;;;;;4976036;28;20112;-83
2023/08/04 07:51:13;;;;;;;2.22;0.30;;;;;;;;;;4972242;28;20050;-83
2023/08/04 07:53:43;;;;;;;2.30;0.55;;;;;;;;;;4972532;28;20059;-83
2023/08/04 07:56:15;;;;;;;1.48;0.25;;;;;;;;;;4980749;28;20077;-83
2023/08/04 07:58:47;;;;;;;;;;;;;;;;;;4976099;28;20389;-82
2023/08/04 08:01:21;;;;;;;2.03;0.20;;;;;;;;;;4974921;28;20357;-83
2023/08/04 08:03:55;;;;;;;0.98;0.30;;;;;;;;;;4962269;28;20125;-82
2023/08/04 08:06:37;;;;;;;2.55;0.30;;;;;;;;;;4974709;28;20046;-82
2023/08/04 08:09:11;;;;;;;3.08;0.50;;;;;;;;;;4975308;28;20034;-82
2023/08/04 08:11:41;;;;;;;1.88;0.30;;;;;;;;;;4991899;28;20050;-82
2023/08/04 08:14:11;;;;;;;1.23;0.20;;;;;;;;;;4975590;28;20544;-82
2023/08/04 08:16:43;;;;;;;1.60;0.30;;;;;;;;;;4966493;28;20070;-82
2023/08/04 08:19:09;;;;;;;;;;;;;;;;;;4968264;28;20071;-82
2023/08/04 08:21:43;;;;;;;2.10;0.35;;;;;;;;;;4950976;28;19925;-82
2023/08/04 08:24:14;;;;;;;3.63;0.30;;;;;;;;;;4952522;28;20086;-82
2023/08/04 08:27:06;;;;;;;2.13;0.30;;;;;;;;;;4951883;28;20039;-83
2023/08/04 08:29:45;;;;;;;;;;;;;;;;;;;;;
2023/08/04 08:32:20;;;;;;;2.60;0.30;;;;;;;;;;4969399;28;20119;-83
2023/08/04 08:34:51;;;;;;;2.22;0.30;;;;;;;;;;4973567;28;20042;-83
2023/08/04 08:37:29;;;;;;;1.10;0.20;;;;;;;;;;4955261;28;20118;-83
2023/08/04 08:39:57;;;;;;;3.97;0.38;;;;;;;;;;4955716;28;20060;-83
2023/08/04 08:42:29;;;;;;;4.63;0.50;;;;;;;;;;4952313;28;20045;-83
2023/08/04 08:44:55;;;;;;;2.25;0.30;;;;;;;;;;4952685;28;20039;-83
2023/08/04 08:47:34;;;;;;;4.63;0.30;;;;;;;;;;4947550;28;20046;-84
2023/08/04 08:50:01;;;;;;;0.77;0.30;;;;;;;;;;4953655;28;20110;-83
2023/08/04 08:52:32;;;;;;;1.10;0.30;;;;;;;;;;4954768;28;20170;-83
2023/08/04 08:55:06;;;;;;;2.10;0.22;;;;;;;;;;4947252;28;20039;-83
2023/08/04 08:57:40;;;;;;;2.80;0.30;;;;;;;;;;4945923;28;20482;-83
2023/08/04 09:00:08;;;;;;;1.50;0.30;;;;;;;;;;4966311;28;20039;-83
2023/08/04 09:02:36;;;;;;;3.70;0.30;;;;;;;;;;4956275;28;20090;-83
2023/08/04 09:05:05;;;;;;;2.05;0.30;;;;;;;;;;4959583;28;20595;-83
2023/08/04 09:07:37;;;;;;;2.08;0.50;;;;;;;;;;4939431;28;20505;-82
2023/08/04 09:10:19;;;;;;;;;;;;;;;;;;;;;
2023/08/04 09:12:56;;;;;;;1.73;0.20;;;;;;;;;;4971653;28;20037;-82
2023/08/04 09:15:42;;;;;;;0.95;0.17;;;;;;;;;;4952907;28;20415;-83
2023/08/04 09:18:29;;;;;;;0.98;0.25;;;;;;;;;;4971914;28;20133;-83
2023/08/04 09:21:18;;;;;;;3.70;0.50;;;;;;;;;;4972469;28;20094;-83
2023/08/04 09:23:55;;;;;;;2.05;0.32;;;;;;;;;;4970530;28;20038;-83
2023/08/04 09:26:52;;;;;;;0.73;0.30;;;;;;;;;;4968750;28;20561;-83
2023/08/04 09:29:31;;;;;;;1.02;0.30;;;;;;;;;;4949524;28;20046;-83
2023/08/04 09:32:13;;;;;;;2.33;0.20;;;;;;;;;;4959122;28;20043;-83
2023/08/04 09:35:10;;;;;;;;;;;;;;;;;;;;;
2023/08/04 09:41:11;;;;;;;0.40;0.20;;;;;;;;;;4968647;28;20058;-83
2023/08/04 09:44:17;;;;;;;0.55;0.13;;;;;;;;;;4968857;28;20039;-83
2023/08/04 09:47:18;;;;;;;0.55;0.17;;;;;;;;;;4955061;28;20045;-83
2023/08/04 09:53:21;;;;;;;1.15;0.20;;;;;;;;;;4977146;28;20042;-83
2023/08/04 09:55:53;;;;;;;0.63;0.22;;;;;;;;;;4955637;28;20129;-83
2023/08/04 09:58:28;;;;;;;;;;;;;;;;;;4986105;28;20050;-83
2023/08/04 10:01:16;;;;;;;1.85;0.28;;;;;;;;;;4974220;28;19953;-83
2023/08/04 10:03:57;;;;;;;1.13;0.20;;;;;;;;;;4908829;29;20084;-83
2023/08/04 10:09:53;;;;;;;3.72;0.30;;;;;;;;;;4913003;29;20048;-83
2023/08/04 10:12:41;;;;;;;2.30;0.22;;;;;;;;;;4912601;29;20445;-83
2023/08/04 10:30:24;;;;;;;1.30;0.13;;;;;;;;;;4921989;29;20163;-83
2023/08/04 10:33:25;;;;;;;1.50;0.22;;;;;;;;;;4944170;28;20093;-83
2023/08/04 10:36:18;;;;;;;0.75;0.20;;;;;;;;;;4964625;28;20383;-84
2023/08/04 10:44:58;;;;;;;0.73;0.20;;;;;;;;;;4884979;29;20219;-83
2023/08/04 10:47:45;;;;;;;0.10;0.10;;;;;;;;;;4900125;29;20066;-84
2023/08/04 10:51:26;;;;;;;0.63;0.20;;;;;;;;;;4876283;29;20976;-83
2023/08/04 10:53:33;;;;;;;0.73;0.20;;;;;;;;;;4933913;28;20387;-83
2023/08/04 10:56:21;;;;;;;1.65;0.20;;;;;;;;;;4941100;28;20053;-83
2023/08/04 10:59:09;;;;;;;0.73;0.20;;;;;;;;;;4952267;28;20118;-83
2023/08/04 11:05:18;;;;;;;0.85;0.20;;;;;;;;;;4915287;29;20700;-83
2023/08/04 11:07:52;;;;;;;0.20;0.10;;;;;;;;;;4928873;29;20071;-83
2023/08/04 11:10:39;;;;;;;0.60;0.20;;;;;;;;;;4942035;28;20054;-83
2023/08/04 11:13:21;;;;;;;;;;;;;;;;;;;;;
2023/08/04 11:15:53;;;;;;;0.65;0.10;;;;;;;;;;4970226;28;20030;-83
2023/08/04 11:22:09;;;;;;;;;;;;;;;;;;;;;
2023/08/04 11:24:44;;;;;;;0.70;0.15;;;;;;;;;;4989721;28;20377;-83
2023/08/04 11:27:39;;;;;;;1.48;0.10;;;;;;;;;;4971497;28;20047;-83
2023/08/04 11:30:36;;;;;;;0.45;0.13;;;;;;;;;;4951867;29;20046;-83
2023/08/04 11:33:14;;;;;;;0.93;0.10;;;;;;;;;;4931244;29;20047;-83
2023/08/04 11:36:06;;;;;;;;;;;;;;;;;;;;;
2023/08/04 11:39:04;;;;;;;;;;;;;;;;;;;;;
2023/08/04 11:41:47;;;;;;;1.75;0.10;;;;;;;;;;4965706;28;20046;-83
2023/08/04 11:44:21;;;;;;;0.32;0.10;;;;;;;;;;4978351;28;20039;-82
2023/08/04 11:46:50;;;;;;;3.42;0.10;;;;;;;;;;4991115;28;20042;-83
2023/08/04 11:49:24;;;;;;;0.38;0.10;;;;;;;;;;4969178;28;20038;-82
2023/08/04 11:51:58;;;;;;;0.32;0.10;;;;;;;;;;4975844;28;20052;-83
2023/08/04 11:54:27;;;;;;;0.95;0.10;;;;;;;;;;4973390;28;20041;-82
2023/08/04 11:56:59;;;;;;;0.00;0.00;;;;;;;;;;4975073;28;20046;-83
2023/08/04 11:59:28;;;;;;;0.88;0.10;;;;;;;;;;4957262;28;20046;-82
2023/08/04 12:02:12;;;;;;;1.00;0.10;;;;;;;;;;4992363;28;20049;-83
2023/08/04 12:04:51;;;;;;;0.22;0.00;;;;;;;;;;4976012;28;20038;-83
2023/08/04 12:07:43;;;;;;;;;;;;;;;;;;;;;
2023/08/04 12:10:49;;;;;;;1.40;0.20;;;;;;;;;;4951838;28;20040;-82
2023/08/04 12:13:41;;;;;;;0.85;0.10;;;;;;;;;;4933911;29;20039;-82
2023/08/04 12:16:28;;;;;;;0.60;0.20;;;;;;;;;;4941930;29;20052;-82
2023/08/04 12:19:09;;;;;;;1.23;0.10;;;;;;;;;;4935264;28;20039;-82
2023/08/04 12:21:45;;;;;;;0.50;0.10;;;;;;;;;;4930524;29;20044;-83
2023/08/04 12:24:39;;;;;;;1.80;0.10;;;;;;;;;;4932690;28;20971;-82
2023/08/04 12:27:28;;;;;;;0.10;0.03;;;;;;;;;;4929586;29;20035;-82
2023/08/04 12:30:00;;;;;;;0.22;0.08;;;;;;;;;;4934013;29;20094;-83
2023/08/04 12:35:46;;;;;;;1.00;0.10;;;;;;;;;;4950229;28;20086;-83
2023/08/04 12:41:59;;;;;;;2.58;0.22;;;;;;;;;;4971394;28;20398;-82
2023/08/04 12:47:40;;;;;;;0.40;0.00;;;;;;;;;;4982477;28;20529;-82
2023/08/04 12:50:30;;;;;;;0.20;0.03;;;;;;;;;;4973453;28;20042;-83
2023/08/04 12:53:15;;;;;;;;;;;;;;;;;;;;;
2023/08/04 12:55:59;;;;;;;0.25;0.10;;;;;;;;;;4986526;28;20045;-83
2023/08/04 12:58:31;;;;;;;3.63;0.10;;;;;;;;;;4974791;28;20038;-82
2023/08/04 13:00:57;;;;;;;2.35;0.10;;;;;;;;;;4989087;28;20052;-81
2023/08/04 13:06:15;;;;;;;0.50;0.10;;;;;;;;;;4972111;28;20394;-82
2023/08/04 13:08:41;;;;;;;1.38;0.20;;;;;;;;;;4971169;28;20038;-82
2023/08/04 13:11:07;;;;;;;1.65;0.15;;;;;;;;;;4968645;28;20046;-82
2023/08/04 13:13:36;;;;;;;1.50;0.10;;;;;;;;;;4975109;28;20085;-83
2023/08/04 13:16:18;;;;;;;1.00;0.20;;;;;;;;;;4971362;28;20042;-83
2023/08/04 13:18:44;;;;;;;;;;;;;;;;;;4973911;28;20055;-83
2023/08/04 13:21:15;;;;;;;0.85;0.13;;;;;;;;;;4978791;28;19918;-82
2023/08/04 13:23:41;;;;;;;2.20;0.13;;;;;;;;;;4986562;28;20041;-82
2023/08/04 13:26:11;;;;;;;0.63;0.20;;;;;;;;;;4965244;28;20766;-82
2023/08/04 13:28:37;;;;;;;1.00;0.20;;;;;;;;;;4982777;28;20038;-82
2023/08/04 13:31:06;;;;;;;4.65;0.30;;;;;;;;;;4968753;28;20469;-82
2023/08/04 13:33:35;;;;;;;1.40;0.10;;;;;;;;;;4962507;28;20035;-82
2023/08/04 13:36:01;;;;;;;0.98;0.10;;;;;;;;;;4985904;28;20069;-82
2023/08/04 13:38:27;;;;;;;1.65;0.05;;;;;;;;;;4986630;28;20030;-82
2023/08/04 13:40:57;;;;;;;1.27;0.10;;;;;;;;;;4984769;28;20061;-83
2023/08/04 13:43:23;;;;;;;0.17;0.10;;;;;;;;;;4991826;28;20548;-82
2023/08/04 13:45:49;;;;;;;0.95;0.17;;;;;;;;;;4973901;28;20038;-82
2023/08/04 13:48:31;;;;;;;1.45;0.10;;;;;;;;;;4971174;28;20038;-82
2023/08/04 13:50:57;;;;;;;1.17;0.10;;;;;;;;;;4981757;28;20126;-82
2023/08/04 13:53:25;;;;;;;0.38;0.00;;;;;;;;;;4991627;28;20078;-82
2023/08/04 13:55:51;;;;;;;0.00;0.00;;;;;;;;;;4986703;28;20066;-82
2023/08/04 13:58:17;;;;;;;0.32;0.10;;;;;;;;;;4991513;28;20145;-82
2023/08/04 14:00:43;;;;;;;2.88;0.82;;;;;;;;;;4991377;28;20161;-82
2023/08/04 14:03:09;;;;;;;2.42;0.65;;;;;;;;;;4973758;28;20125;-82
2023/08/04 14:05:35;;;;;;;0.90;0.10;;;;;;;;;;4981012;28;20121;-82
2023/08/04 14:08:05;;;;;;;2.22;0.20;;;;;;;;;;4990984;28;20474;-82
2023/08/04 14:10:34;;;;;;;1.58;0.20;;;;;;;;;;4969678;28;20046;-82
2023/08/04 14:13:02;;;;;;;1.92;0.10;;;;;;;;;;4973710;28;20058;-82
2023/08/04 14:15:30;;;;;;;1.65;0.17;;;;;;;;;;4974024;28;20046;-82
2023/08/04 14:17:57;;;;;;;0.50;0.10;;;;;;;;;;4964226;28;20052;-82
2023/08/04 14:20:23;;;;;;;1.27;0.10;;;;;;;;;;4972658;28;20047;-82
2023/08/04 14:22:49;;;;;;;1.73;0.20;;;;;;;;;;4970276;28;20426;-82
2023/08/04 14:25:18;;;;;;;1.50;0.20;;;;;;;;;;4979758;28;20053;-82
2023/08/04 14:27:47;;;;;;;1.15;0.20;;;;;;;;;;4963185;28;20150;-82
2023/08/04 14:30:15;;;;;;;4.40;0.30;;;;;;;;;;4990589;28;20042;-82
2023/08/04 14:32:44;;;;;;;1.88;0.10;;;;;;;;;;4971511;28;20496;-82
2023/08/04 14:35:15;;;;;;;0.32;0.13;;;;;;;;;;4972422;28;20060;-82
2023/08/04 14:37:41;;;;;;;0.45;0.10;;;;;;;;;;4984558;28;20043;-82
2023/08/04 14:40:08;;;;;;;1.08;0.20;;;;;;;;;;4956361;28;20042;-82
2023/08/04 14:42:36;;;;;;;0.50;0.10;;;;;;;;;;4959255;28;20744;-82
2023/08/04 14:45:02;;;;;;;1.63;0.30;;;;;;;;;;4985674;28;20399;-82
2023/08/04 14:47:28;;;;;;;0.38;0.10;;;;;;;;;;4988658;28;20051;-82
2023/08/04 14:49:57;;;;;;;0.22;0.10;;;;;;;;;;4966936;28;20049;-82
2023/08/04 14:52:40;;;;;;;1.08;0.20;;;;;;;;;;4959695;28;20050;-82
2023/08/04 14:55:14;;;;;;;0.68;0.10;;;;;;;;;;4980368;28;20509;-82
2023/08/04 14:57:42;;;;;;;1.65;0.20;;;;;;;;;;4990265;28;20078;-82
2023/08/04 15:00:11;;;;;;;0.75;0.20;;;;;;;;;;4953974;28;20034;-82
2023/08/04 15:02:37;;;;;;;0.88;0.10;;;;;;;;;;4990379;28;20497;-82
2023/08/04 15:05:03;;;;;;;0.93;0.10;;;;;;;;;;4966670;28;20041;-82
2023/08/04 15:07:29;;;;;;;1.02;0.20;;;;;;;;;;4971348;28;20051;-82
2023/08/04 15:09:55;;;;;;;2.80;0.20;;;;;;;;;;4969014;28;20039;-83
2023/08/04 15:12:21;;;;;;;3.25;0.10;;;;;;;;;;4975789;28;20074;-82
2023/08/04 15:14:47;;;;;;;1.73;0.10;;;;;;;;;;4969971;28;20035;-82
2023/08/04 15:17:13;;;;;;;0.40;0.10;;;;;;;;;;4970690;28;20042;-82
2023/08/04 15:19:40;;;;;;;0.35;0.10;;;;;;;;;;4987051;28;20046;-83
2023/08/04 15:22:10;;;;;;;0.65;0.10;;;;;;;;;;4972396;28;20042;-82
2023/08/04 15:24:37;;;;;;;0.47;0.10;;;;;;;;;;4972069;28;20058;-82
2023/08/04 15:27:03;;;;;;;0.10;0.00;;;;;;;;;;4972408;28;20039;-82
2023/08/04 15:29:29;;;;;;;1.58;0.30;;;;;;;;;;4960480;28;20122;-82
2023/08/04 15:31:55;;;;;;;0.32;0.20;;;;;;;;;;4973195;28;20145;-82
2023/08/04 15:34:21;;;;;;;0.47;0.17;;;;;;;;;;4970303;28;20035;-82
2023/08/04 15:36:47;;;;;;;0.47;0.17;;;;;;;;;;4990970;28;20061;-82
2023/08/04 15:39:14;;;;;;;0.43;0.10;;;;;;;;;;4973129;28;20042;-82
2023/08/04 15:41:40;;;;;;;0.10;0.10;;;;;;;;;;4968940;28;20065;-82
2023/08/04 15:44:05;;;;;;;0.57;0.15;;;;;;;;;;4960143;28;20027;-82
2023/08/04 15:46:32;;;;;;;0.20;0.10;;;;;;;;;;4984661;28;20053;-82
2023/08/04 15:48:57;;;;;;;0.55;0.15;;;;;;;;;;4979749;28;20035;-82
2023/08/04 15:51:23;;;;;;;0.40;0.10;;;;;;;;;;4973959;28;20181;-82
2023/08/04 15:53:51;;;;;;;0.03;0.03;;;;;;;;;;4964959;28;20089;-82
2023/08/04 15:56:17;;;;;;;0.63;0.00;;;;;;;;;;4989471;28;20038;-82
2023/08/04 15:58:43;;;;;;;0.10;0.10;;;;;;;;;;4982997;28;20039;-82
2023/08/04 16:01:09;;;;;;;0.15;0.08;;;;;;;;;;4971715;28;20046;-83
2023/08/04 16:03:35;;;;;;;2.75;0.10;;;;;;;;;;4972469;28;20073;-83
2023/08/04 16:06:03;;;;;;;0.10;0.03;;;;;;;;;;4977895;28;20038;-83
2023/08/04 16:08:30;;;;;;;0.60;0.10;;;;;;;;;;4978684;28;20038;-83
2023/08/04 16:10:59;;;;;;;0.00;0.00;;;;;;;;;;4974502;28;20039;-83
2023/08/04 16:13:25;;;;;;;2.22;0.20;;;;;;;;;;4990984;28;20544;-82
2023/08/04 16:15:58;;;;;;;0.43;0.10;;;;;;;;;;4989124;28;20044;-82
2023/08/04 16:21:06;;;;;;;1.10;0.30;;;;;;;;;;4996221;26;20740;-82
2023/08/04 16:23:34;;;;;;;;;;;;;;;;;;4976538;28;20097;-82
2023/08/04 16:26:00;;;;;;;0.50;0.10;;;;;;;;;;4981792;28;20364;-81
2023/08/04 16:28:27;;;;;;;1.20;0.10;;;;;;;;;;4973672;28;20035;-81
2023/08/04 16:30:53;;;;;;;0.80;0.10;;;;;;;;;;4974235;28;20042;-81
2023/08/04 16:33:19;;;;;;;0.90;0.20;;;;;;;;;;4980134;28;20142;-81
2023/08/04 16:35:46;;;;;;;0.85;0.20;;;;;;;;;;4973447;28;20049;-82
2023/08/04 16:38:12;;;;;;;1.23;0.20;;;;;;;;;;4967974;28;20050;-82
2023/08/04 16:40:47;;;;;;;0.82;0.20;;;;;;;;;;4969983;28;20498;-81
2023/08/04 16:43:15;;;;;;;1.98;0.40;;;;;;;;;;4965070;28;20050;-83
2023/08/04 16:45:50;;;;;;;2.85;0.20;;;;;;;;;;4977265;28;20661;-83
2023/08/04 16:48:53;;;;;;;;;;;;;;;;;;;;;
2023/08/04 16:51:19;;;;;;;0.93;0.20;;;;;;;;;;4994624;28;20072;-82
2023/08/04 16:53:45;;;;;;;2.17;0.40;;;;;;;;;;5005297;28;20038;-82
2023/08/04 16:56:11;;;;;;;1.15;0.22;;;;;;;;;;4988724;28;20046;-82
2023/08/04 16:58:37;;;;;;;1.25;0.30;;;;;;;;;;5011421;28;20995;-82
2023/08/04 17:01:03;;;;;;;2.75;0.30;;;;;;;;;;4992685;28;20053;-82
2023/08/04 17:03:29;;;;;;;3.83;1.30;;;;;;;;;;5011898;28;20038;-82
2023/08/04 17:05:58;;;;;;;0.73;0.20;;;;;;;;;;4993896;28;20045;-82
2023/08/04 17:08:24;;;;;;;0.95;0.38;;;;;;;;;;5010055;28;20057;-82
2023/08/04 17:10:52;;;;;;;1.92;0.43;;;;;;;;;;5011376;28;20038;-81
2023/08/04 17:13:18;;;;;;;1.83;0.30;;;;;;;;;;4994236;28;20140;-82
2023/08/04 17:15:44;;;;;;;1.83;0.38;;;;;;;;;;4993605;28;20133;-82
2023/08/04 17:18:12;;;;;;;1.98;0.60;;;;;;;;;;5005505;28;20130;-82
2023/08/04 17:20:40;;;;;;;4.68;0.60;;;;;;;;;;4978391;28;20061;-83
2023/08/04 17:23:06;;;;;;;3.00;0.60;;;;;;;;;;5011696;28;20761;-83
2023/08/04 17:25:36;;;;;;;5.80;1.15;;;;;;;;;;5000998;28;20089;-83
2023/08/04 17:28:02;;;;;;;3.90;0.95;;;;;;;;;;5011059;28;20049;-83
2023/08/04 17:30:28;;;;;;;2.33;0.55;;;;;;;;;;5011422;28;20054;-83
2023/08/04 17:32:54;;;;;;;1.70;0.40;;;;;;;;;;4989241;28;20029;-83
2023/08/04 17:35:22;;;;;;;3.75;0.50;;;;;;;;;;5006595;28;20065;-82
2023/08/04 17:37:48;;;;;;;3.15;1.13;;;;;;;;;;4987221;28;20128;-82
2023/08/04 17:40:14;;;;;;;5.57;0.98;;;;;;;;;;4993754;28;20042;-82
2023/08/04 17:42:40;;;;;;;2.13;0.50;;;;;;;;;;4992328;28;20040;-82
2023/08/04 17:45:07;;;;;;;3.25;0.98;;;;;;;;;;5009538;28;20069;-82
2023/08/04 17:47:33;;;;;;;2.35;0.80;;;;;;;;;;4992877;28;20064;-81
2023/08/04 17:49:59;;;;;;;6.65;0.80;;;;;;;;;;4993127;28;20480;-82
2023/08/04 17:52:25;;;;;;;3.28;0.70;;;;;;;;;;4984607;28;20042;-82
2023/08/04 17:54:51;;;;;;;3.78;0.93;;;;;;;;;;4980741;28;20039;-81
2023/08/04 17:57:17;;;;;;;1.25;0.60;;;;;;;;;;4997453;28;20129;-82
2023/08/04 17:59:43;;;;;;;2.88;0.70;;;;;;;;;;5011224;28;20053;-82
2023/08/04 18:02:09;;;;;;;4.07;0.70;;;;;;;;;;5001542;28;20133;-82
2023/08/04 18:04:35;;;;;;;2.80;0.80;;;;;;;;;;4984481;28;20049;-82
2023/08/04 18:07:01;;;;;;;2.28;0.50;;;;;;;;;;4992972;28;20033;-82
2023/08/04 18:09:27;;;;;;;5.25;0.70;;;;;;;;;;5010364;28;20100;-82
2023/08/04 18:11:53;;;;;;;5.75;0.60;;;;;;;;;;5010553;28;20034;-82
2023/08/04 18:14:19;;;;;;;3.25;0.50;;;;;;;;;;5010154;28;20469;-82
2023/08/04 18:16:46;;;;;;;2.70;0.80;;;;;;;;;;5010667;28;20386;-82
2023/08/04 18:19:12;;;;;;;2.00;0.60;;;;;;;;;;4989476;28;20061;-82
2023/08/04 18:21:38;;;;;;;2.42;0.80;;;;;;;;;;5009837;28;20046;-82
2023/08/04 18:24:04;;;;;;;3.55;0.60;;;;;;;;;;5004645;28;20548;-82
2023/08/04 18:26:31;;;;;;;2.00;1.15;;;;;;;;;;5000197;28;20050;-82
2023/08/04 18:29:00;;;;;;;3.75;1.08;;;;;;;;;;5009234;28;20034;-82
2023/08/04 18:31:26;;;;;;;2.38;0.55;;;;;;;;;;5010224;28;20045;-81
2023/08/04 18:33:52;;;;;;;0.63;0.40;;;;;;;;;;5005671;28;20041;-82
2023/08/04 18:36:18;;;;;;;1.17;0.57;;;;;;;;;;4992366;28;20046;-82
2023/08/04 18:38:44;;;;;;;3.10;0.55;;;;;;;;;;5009705;28;20524;-82
2023/08/04 18:41:10;;;;;;;1.85;0.50;;;;;;;;;;4992157;28;20049;-82
2023/08/04 18:43:36;;;;;;;2.70;0.50;;;;;;;;;;4986339;28;20065;-82
2023/08/04 18:46:02;;;;;;;1.17;0.43;;;;;;;;;;4992499;28;20557;-82
2023/08/04 18:48:28;;;;;;;1.95;0.63;;;;;;;;;;5008906;28;20396;-82
2023/08/04 18:50:54;;;;;;;2.75;0.95;;;;;;;;;;4980339;28;20046;-82
2023/08/04 18:53:20;;;;;;;2.45;0.52;;;;;;;;;;5000545;28;20213;-82
2023/08/04 18:55:46;;;;;;;2.63;0.63;;;;;;;;;;4988429;28;20052;-82
2023/08/04 18:58:12;;;;;;;2.33;0.50;;;;;;;;;;5010146;28;20065;-82
2023/08/04 19:00:38;;;;;;;1.35;0.57;;;;;;;;;;4991588;28;20045;-82
2023/08/04 19:03:04;;;;;;;3.38;1.25;;;;;;;;;;4988333;28;20033;-82
2023/08/04 19:05:30;;;;;;;1.48;0.63;;;;;;;;;;5009507;28;20052;-82
2023/08/04 19:07:56;;;;;;;1.92;1.05;;;;;;;;;;5004094;28;20038;-82
2023/08/04 19:10:22;;;;;;;2.45;0.60;;;;;;;;;;4983738;28;20045;-81
2023/08/04 19:12:48;;;;;;;5.10;0.70;;;;;;;;;;4976993;28;20042;-81
2023/08/04 19:15:14;;;;;;;1.58;0.60;;;;;;;;;;5009052;28;20433;-82
2023/08/04 19:17:40;;;;;;;3.25;0.60;;;;;;;;;;5005274;28;20470;-82
2023/08/04 19:20:08;;;;;;;2.20;0.40;;;;;;;;;;4991150;28;20042;-82
2023/08/04 19:22:34;;;;;;;2.42;0.65;;;;;;;;;;4991833;28;20049;-82
2023/08/04 19:25:00;;;;;;;2.25;0.60;;;;;;;;;;5000036;28;20034;-82
2023/08/04 19:27:27;;;;;;;1.85;0.65;;;;;;;;;;5008193;28;20051;-82
2023/08/04 19:29:54;;;;;;;2.28;0.73;;;;;;;;;;4999222;28;20048;-82
2023/08/04 19:32:20;;;;;;;2.40;0.80;;;;;;;;;;5009328;28;20041;-82
2023/08/04 19:34:46;;;;;;;2.47;0.77;;;;;;;;;;5008430;28;20050;-82
2023/08/04 19:37:12;;;;;;;1.42;0.63;;;;;;;;;;4991556;28;20132;-82
2023/08/04 19:39:38;;;;;;;2.50;1.00;;;;;;;;;;4996593;28;20137;-82
2023/08/04 19:42:07;;;;;;;3.35;0.70;;;;;;;;;;4994581;28;20048;-82
2023/08/04 19:44:34;;;;;;;3.10;0.90;;;;;;;;;;5006870;28;20050;-82
2023/08/04 19:47:00;;;;;;;2.95;0.90;;;;;;;;;;5006232;28;20442;-82
2023/08/04 19:49:27;;;;;;;2.63;0.90;;;;;;;;;;5010550;28;20038;-82
2023/08/04 19:51:53;;;;;;;3.28;0.65;;;;;;;;;;5006358;28;22099;-83
2023/08/04 19:54:19;;;;;;;2.53;0.70;;;;;;;;;;4987906;28;20159;-82
2023/08/04 19:56:45;;;;;;;2.15;0.68;;;;;;;;;;4995036;28;20133;-82
2023/08/04 19:59:12;;;;;;;2.60;0.80;;;;;;;;;;5013222;28;20361;-82
2023/08/04 20:01:38;;;;;;;2.80;0.70;;;;;;;;;;5012677;28;20128;-82
2023/08/04 20:04:04;;;;;;;7.65;0.88;;;;;;;;;;4982026;28;20561;-82
2023/08/04 20:06:30;;;;;;;3.28;0.80;;;;;;;;;;5011832;28;20042;-82
2023/08/04 20:08:56;;;;;;;2.67;0.93;;;;;;;;;;4985772;28;20042;-82
2023/08/04 20:11:22;;;;;;;4.25;1.42;;;;;;;;;;5006520;28;20046;-82
2023/08/04 20:13:49;;;;;;;3.65;1.15;;;;;;;;;;5005216;28;20045;-82
2023/08/04 20:16:21;;;;;;;5.60;1.75;;;;;;;;;;5011053;28;20049;-83
2023/08/04 20:18:48;;;;;;;6.13;2.90;;;;;;;;;;5011724;28;20044;-82
2023/08/04 20:21:15;;;;;;;4.63;1.60;;;;;;;;;;4991201;28;20073;-82
2023/08/04 20:23:41;;;;;;;5.00;1.50;;;;;;;;;;4999606;28;20045;-82
2023/08/04 20:26:08;;;;;;;4.30;1.08;;;;;;;;;;4994505;28;20034;-83
2023/08/04 20:28:34;;;;;;;4.10;1.00;;;;;;;;;;5011048;28;20461;-83
2023/08/04 20:31:01;;;;;;;3.38;0.70;;;;;;;;;;4995048;28;20085;-83
2023/08/04 20:33:27;;;;;;;2.15;0.90;;;;;;;;;;4981763;28;20046;-83
2023/08/04 20:36:00;;;;;;;3.28;1.20;;;;;;;;;;5006259;28;20042;-83